Port Alsworth, AK

1:05 AM AKDT on August 24, 2016 (GMT -0800)
Iliamna | | Change Station

Elev 161 ft 59.75 °N, 154.91 °W | Updated 12 minutes ago

Overcast
Overcast
58 °F
Feels Like 58 °F
N
9
Wind Variable Wind from East

Today
High -- | Low -- °F
--% Chance of Precip.
Yesterday
High -- | Low -- °F
Precip. -- in
Pressure 30.11 in
Visibility 10.0 miles
Clouds Overcast 2600 ft
Dew Point 53 °F
Humidity 84%
Rainfall 0.00 in
Snow Depth Not available.
6:54 AM 9:42 PM
Waning Gibbous, 59% visible
METAR PAIL 240853Z AUTO 10008KT 10SM OVC026 14/12 A3011 RMK AO2 SLP195 T01440117 401670128 51009 TSNO
Pressure 30.11 in
Visibility 10.0 miles
Clouds Overcast 2600 ft
Dew Point 53 °F
Humidity 84%
Rainfall 0.00 in
Snow Depth Not available.
6:54 AM 9:42 PM
Waning Gibbous, 59% visible
METAR PAIL 240853Z AUTO 10008KT 10SM OVC026 14/12 A3011 RMK AO2 SLP195 T01440117 401670128 51009 TSNO

10-Day Weather Forecast

Almanac

Astronomy

Aug. 24, 2016 Rise Set
Actual Time
Civil Twilight
Nautical Twilight
Astronomical Twilight
Moon
Length of Visible Light
Length of Day
Tomorrow will be .
, % of the Moon is Illuminated

Today's Extremes

State Highs State Lows

Community

WunderPhotos

Upload Photos

1,934,560 photos uploaded!

WunderBlog® & News

Nearby

Air Quality

  Air Quality AQ Index Pollutant
Not available.

Snow Depth

Station Depth Elevation

Earthquake Activity

City Distance Mag. Time & Date
Minimum magnitude displayed is 2.5.

Coastal Water Temperatures

Place Temperature

Stations

Nearby Weather Stations

Station Location Temp. Windchill Dew Point Humidity Wind Precip. Elev Updated Type
                   

Watches & Warnings

There are currently no watches in effect.